Time;durP1;ratioP1;P1;durP2;ratioP2;P2;SDS_P1;SDS_P2;PMS_P1;PMS_P2;Temp;Humidity;BMP_temperature;BMP_pressure;BME280_temperature;BME280_humidity;BME280_pressure;Samples;Min_cycle;Max_cycle;Signal;HPM_P1;HPM_P2
2021/07/14 00:03:55;;;;;;;;;;;;;;;;;;10293476;28;19921;-62
2021/07/14 00:08:52;;;;;;;;;;;;;;;;;;10294481;28;20090;-62
2021/07/14 00:24:21;;;;;;;;;;;;;;;;;;10285139;28;19977;-61
2021/07/14 00:29:19;;;;;;;;;;;;;;;;;;10300142;28;20313;-61
2021/07/14 00:34:16;;;;;;;;;;;;;;;;;;10308485;28;19958;-61
2021/07/14 00:39:13;;;;;;;;;;;;;;;;;;10294533;28;20946;-61
2021/07/14 00:44:11;;;;;;;;;;;;;;;;;;10301287;28;19964;-61
2021/07/14 00:49:10;;;;;;;;;;;;;;;;;;10269374;28;19923;-59
2021/07/14 00:54:08;;;;;;;;;;;;;;;;;;10308952;28;20169;-62
2021/07/14 00:59:05;;;;;;;;;;;;;;;;;;10304688;28;19992;-62
2021/07/14 01:04:03;;;;;;;;;;;;;;;;;;10292113;28;19917;-61
2021/07/14 01:09:00;;;;;;;;;;;;;;;;;;10301825;28;19917;-62
2021/07/14 01:13:58;;;;;;;;;;;;;;;;;;10291125;28;19962;-60
2021/07/14 01:18:55;;;;;;;;;;;;;;;;;;10307902;28;19971;-62
2021/07/14 01:23:52;;;;;;;;;;;;;;;;;;10303795;28;20065;-61
2021/07/14 01:28:50;;;;;;;;;;;;;;;;;;10299893;28;20320;-62
2021/07/14 01:33:49;;;;;;;;;;;;;;;;;;10298428;28;19913;-62
2021/07/14 01:38:47;;;;;;;;;;;;;;;;;;10293574;28;20398;-61
2021/07/14 01:43:44;;;;;;;;;;;;;;;;;;10293486;28;19943;-61
2021/07/14 01:48:41;;;;;;;;;;;;;;;;;;10287731;28;20413;-61
2021/07/14 01:53:39;;;;;;;;;;;;;;;;;;10301899;28;19928;-61
2021/07/14 01:58:36;;;;;;;;;;;;;;;;;;10321265;28;19955;-61
2021/07/14 02:08:31;;;;;;;;;;;;;;;;;;10302925;28;19939;-62
2021/07/14 02:13:28;;;;;;;;;;;;;;;;;;10296223;28;19964;-62
2021/07/14 02:18:25;;;;;;;;;;;;;;;;;;10302216;28;19919;-61
2021/07/14 02:23:23;;;;;;;;;;;;;;;;;;10311994;28;19932;-61
2021/07/14 02:28:20;;;;;;;;;;;;;;;;;;10310481;28;19916;-61
2021/07/14 02:33:17;;;;;;;;;;;;;;;;;;10311754;28;20316;-62
2021/07/14 02:38:14;;;;;;;;;;;;;;;;;;10297064;28;20299;-62
2021/07/14 02:43:12;;;;;;;;;;;;;;;;;;10312652;28;20019;-61
2021/07/14 02:48:09;;;;;;;;;;;;;;;;;;10314666;28;21217;-61
2021/07/14 02:53:06;;;;;;;;;;;;;;;;;;10310623;28;19917;-61
2021/07/14 02:58:04;;;;;;;;;;;;;;;;;;10314116;28;19919;-61
2021/07/14 03:03:01;;;;;;;;;;;;;;;;;;10304231;28;20316;-60
2021/07/14 03:07:58;;;;;;;;;;;;;;;;;;10305322;28;20197;-61
2021/07/14 03:12:57;;;;;;;;;;;;;;;;;;10302092;28;20690;-61
2021/07/14 03:17:55;;;;;;;;;;;;;;;;;;10309690;28;19920;-62
2021/07/14 03:22:52;;;;;;;;;;;;;;;;;;10313378;28;19924;-62
2021/07/14 03:27:49;;;;;;;;;;;;;;;;;;10301539;28;19916;-61
2021/07/14 03:32:47;;;;;;;;;;;;;;;;;;10317456;28;20314;-62
2021/07/14 03:37:44;;;;;;;;;;;;;;;;;;10300731;28;19916;-61
2021/07/14 03:42:41;;;;;;;;;;;;;;;;;;10307538;28;19924;-61
2021/07/14 03:47:39;;;;;;;;;;;;;;;;;;10311554;28;20359;-62
2021/07/14 03:52:36;;;;;;;;;;;;;;;;;;10304526;28;19909;-61
2021/07/14 03:57:33;;;;;;;;;;;;;;;;;;10308866;28;19924;-62
2021/07/14 04:02:30;;;;;;;;;;;;;;;;;;10312921;28;20571;-61
2021/07/14 04:07:28;;;;;;;;;;;;;;;;;;10286042;28;19981;-62
2021/07/14 04:12:25;;;;;;;;;;;;;;;;;;10288946;28;19955;-61
2021/07/14 04:17:22;;;;;;;;;;;;;;;;;;10310598;28;19908;-61
2021/07/14 04:22:20;;;;;;;;;;;;;;;;;;10314322;28;19958;-61
2021/07/14 04:27:17;;;;;;;;;;;;;;;;;;10301533;28;19962;-62
2021/07/14 04:32:14;;;;;;;;;;;;;;;;;;10296962;28;19920;-61
2021/07/14 04:37:12;;;;;;;;;;;;;;;;;;10305330;28;20399;-61
2021/07/14 04:42:09;;;;;;;;;;;;;;;;;;10305736;28;19927;-61
2021/07/14 04:47:06;;;;;;;;;;;;;;;;;;10315471;28;20004;-60
2021/07/14 04:52:04;;;;;;;;;;;;;;;;;;10305542;28;20394;-61
2021/07/14 04:57:01;;;;;;;;;;;;;;;;;;10307915;28;20054;-61
2021/07/14 05:01:58;;;;;;;;;;;;;;;;;;10292969;28;21703;-62
2021/07/14 05:06:56;;;;;;;;;;;;;;;;;;10301969;28;20348;-61
2021/07/14 05:11:53;;;;;;;;;;;;;;;;;;10305420;28;20033;-62
2021/07/14 05:16:50;;;;;;;;;;;;;;;;;;10299042;28;19917;-62
2021/07/14 05:21:48;;;;;;;;;;;;;;;;;;10301674;28;20291;-62
2021/07/14 05:26:45;;;;;;;;;;;;;;;;;;10302151;28;20954;-61
2021/07/14 05:31:42;;;;;;;;;;;;;;;;;;10298396;28;20049;-61
2021/07/14 05:36:40;;;;;;;;;;;;;;;;;;10317760;28;20486;-62
2021/07/14 05:41:37;;;;;;;;;;;;;;;;;;10310781;28;20296;-62
2021/07/14 05:46:34;;;;;;;;;;;;;;;;;;10315625;28;19917;-62
2021/07/14 05:51:32;;;;;;;;;;;;;;;;;;10308277;28;19924;-61
2021/07/14 05:56:29;;;;;;;;;;;;;;;;;;10306611;28;19917;-62
2021/07/14 06:01:26;;;;;;;;;;;;;;;;;;10292615;28;20576;-59
2021/07/14 06:06:23;;;;;;;;;;;;;;;;;;10286101;28;20262;-62
2021/07/14 06:11:21;;;;;;;;;;;;;;;;;;10300806;28;19927;-62
2021/07/14 06:16:19;;;;;;;;;;;;;;;;;;10295015;28;20420;-63
2021/07/14 06:21:16;;;;;;;;;;;;;;;;;;10291362;28;19932;-62
2021/07/14 06:26:14;;;;;;;;;;;;;;;;;;10312620;28;19973;-61
2021/07/14 06:31:11;;;;;;;;;;;;;;;;;;10305295;28;20331;-61
2021/07/14 06:36:08;;;;;;;;;;;;;;;;;;10305135;28;20075;-61
2021/07/14 06:41:06;;;;;;;;;;;;;;;;;;10300109;28;20028;-62
2021/07/14 06:46:03;;;;;;;;;;;;;;;;;;10304333;28;19912;-61
2021/07/14 06:51:00;;;;;;;;;;;;;;;;;;10290058;28;19921;-61
2021/07/14 06:55:58;;;;;;;;;;;;;;;;;;10310145;28;19920;-62
2021/07/14 07:00:55;;;;;;;;;;;;;;;;;;10315823;28;20171;-63
2021/07/14 07:05:53;;;;;;;;;;;;;;;;;;10306198;28;20049;-62
2021/07/14 07:10:50;;;;;;;;;;;;;;;;;;10301266;28;20203;-62
2021/07/14 07:15:47;;;;;;;;;;;;;;;;;;10302314;28;20198;-62
2021/07/14 07:20:45;;;;;;;;;;;;;;;;;;10288445;28;19917;-62
2021/07/14 07:25:43;;;;;;;;;;;;;;;;;;10301440;28;19920;-63
2021/07/14 07:30:40;;;;;;;;;;;;;;;;;;10296570;28;20296;-62
2021/07/14 07:35:37;;;;;;;;;;;;;;;;;;10305222;28;19917;-63
2021/07/14 07:40:35;;;;;;;;;;;;;;;;;;10266250;28;19974;-61
2021/07/14 07:45:32;;;;;;;;;;;;;;;;;;10263923;28;19924;-61
2021/07/14 07:50:29;;;;;;;;;;;;;;;;;;10273841;28;19920;-61
2021/07/14 07:55:27;;;;;;;;;;;;;;;;;;10289704;28;19913;-61
2021/07/14 08:00:24;;;;;;;;;;;;;;;;;;10319099;28;20143;-62
2021/07/14 08:05:21;;;;;;;;;;;;;;;;;;10274106;28;19939;-61
2021/07/14 08:10:18;;;;;;;;;;;;;;;;;;10307458;28;19917;-62
2021/07/14 08:15:17;;;;;;;;;;;;;;;;;;10282478;28;20419;-62
2021/07/14 08:20:14;;;;;;;;;;;;;;;;;;10279705;28;19917;-62
2021/07/14 08:25:12;;;;;;;;;;;;;;;;;;10286819;28;19916;-62
2021/07/14 08:30:09;;;;;;;;;;;;;;;;;;10270105;28;19920;-62
2021/07/14 08:35:07;;;;;;;;;;;;;;;;;;10343249;22;19920;-67
2021/07/14 08:40:04;;;;;;;;;;;;;;;;;;10300626;28;19917;-67
2021/07/14 08:45:02;;;;;;;;;;;;;;;;;;10294522;28;19932;-67
2021/07/14 08:50:01;;;;;;;;;;;;;;;;;;10299881;28;19913;-67
2021/07/14 08:54:58;;;;;;;;;;;;;;;;;;10289101;28;19913;-67
2021/07/14 08:59:56;;;;;;;;;;;;;;;;;;10289498;28;20168;-67
2021/07/14 09:04:53;;;;;;;;;;;;;;;;;;10291163;28;19913;-67
2021/07/14 09:09:50;;;;;;;;;;;;;;;;;;10298377;28;20382;-68
2021/07/14 09:14:48;;;;;;;;;;;;;;;;;;10303423;28;19921;-67
2021/07/14 09:19:45;;;;;;;;;;;;;;;;;;10300729;28;19921;-68
2021/07/14 09:24:45;;;;;;;;;;;;;;;;;;10295424;28;19931;-69
2021/07/14 09:29:42;;;;;;;;;;;;;;;;;;10298945;28;19913;-69
2021/07/14 09:34:39;;;;;;;;;;;;;;;;;;10296034;28;19925;-69
2021/07/14 09:39:37;;;;;;;;;;;;;;;;;;10297242;28;19990;-69
2021/07/14 09:44:34;;;;;;;;;;;;;;;;;;10297681;28;20023;-69
2021/07/14 09:49:31;;;;;;;;;;;;;;;;;;10298298;28;19939;-71
2021/07/14 09:54:29;;;;;;;;;;;;;;;;;;10296362;28;20402;-70
2021/07/14 09:59:26;;;;;;;;;;;;;;;;;;10291506;28;19924;-69
2021/07/14 10:04:26;;;;;;;;;;;;;;;;;;10299362;28;20032;-69
2021/07/14 10:09:24;;;;;;;;;;;;;;;;;;10296338;28;19948;-69
2021/07/14 10:14:21;;;;;;;;;;;;;;;;;;10288365;28;20005;-69
2021/07/14 10:19:19;;;;;;;;;;;;;;;;;;10295222;28;19913;-70
2021/07/14 10:24:17;;;;;;;;;;;;;;;;;;10293841;28;19921;-68
2021/07/14 10:29:15;;;;;;;;;;;;;;;;;;10296537;28;20008;-66
2021/07/14 10:34:12;;;;;;;;;;;;;;;;;;10285524;28;19967;-67
2021/07/14 10:39:09;;;;;;;;;;;;;;;;;;10281912;28;20675;-66
2021/07/14 10:44:07;;;;;;;;;;;;;;;;;;10279651;28;19928;-66
2021/07/14 10:49:04;;;;;;;;;;;;;;;;;;10292513;28;19923;-63
2021/07/14 10:54:04;;;;;;;;;;;;;;;;;;10288692;28;20055;-64
2021/07/14 10:59:01;;;;;;;;;;;;;;;;;;10284662;28;19967;-64
2021/07/14 11:03:59;;;;;;;;;;;;;;;;;;10285209;28;19961;-64
2021/07/14 11:08:56;;;;;;;;;;;;;;;;;;10296490;28;19909;-64
2021/07/14 11:13:53;;;;;;;;;;;;;;;;;;10294189;28;20007;-63
2021/07/14 11:18:50;;;;;;;;;;;;;;;;;;10293816;28;19913;-64
2021/07/14 11:23:48;;;;;;;;;;;;;;;;;;10293309;28;19917;-64
2021/07/14 11:28:45;;;;;;;;;;;;;;;;;;10295794;28;19939;-64
2021/07/14 11:33:42;;;;;;;;;;;;;;;;;;10295423;28;19928;-63
2021/07/14 11:38:39;;;;;;;;;;;;;;;;;;10290733;28;19921;-63
2021/07/14 11:43:37;;;;;;;;;;;;;;;;;;10289400;28;19913;-64
2021/07/14 11:48:34;;;;;;;;;;;;;;;;;;10294940;28;19917;-65
2021/07/14 11:53:32;;;;;;;;;;;;;;;;;;10290980;28;19916;-65
2021/07/14 11:58:29;;;;;;;;;;;;;;;;;;10282661;28;20279;-66
2021/07/14 12:03:26;;;;;;;;;;;;;;;;;;10286470;28;19917;-65
2021/07/14 12:08:23;;;;;;;;;;;;;;;;;;10285409;28;19913;-67
2021/07/14 12:13:21;;;;;;;;;;;;;;;;;;10293154;28;19913;-67
2021/07/14 12:18:18;;;;;;;;;;;;;;;;;;10285410;28;20414;-67
2021/07/14 12:23:15;;;;;;;;;;;;;;;;;;10286391;28;20055;-64
2021/07/14 12:28:13;;;;;;;;;;;;;;;;;;10288051;28;20019;-64
2021/07/14 12:33:10;;;;;;;;;;;;;;;;;;10288400;28;20015;-64
2021/07/14 12:38:08;;;;;;;;;;;;;;;;;;10285775;28;19959;-65
2021/07/14 12:43:05;;;;;;;;;;;;;;;;;;10306025;28;19924;-64
2021/07/14 12:48:02;;;;;;;;;;;;;;;;;;10301081;28;20016;-64
2021/07/14 12:53:00;;;;;;;;;;;;;;;;;;10300907;28;19964;-65
2021/07/14 12:57:57;;;;;;;;;;;;;;;;;;10300958;28;19943;-65
2021/07/14 13:02:56;;;;;;;;;;;;;;;;;;10308494;28;20241;-65
2021/07/14 13:07:53;;;;;;;;;;;;;;;;;;10308606;28;20254;-65
2021/07/14 13:12:50;;;;;;;;;;;;;;;;;;10303660;28;19913;-64
2021/07/14 13:17:48;;;;;;;;;;;;;;;;;;10297820;28;20295;-65
2021/07/14 13:22:45;;;;;;;;;;;;;;;;;;10303802;28;20272;-65
2021/07/14 13:27:42;;;;;;;;;;;;;;;;;;10307625;28;19915;-63
2021/07/14 13:32:39;;;;;;;;;;;;;;;;;;10302620;28;20005;-65
2021/07/14 13:37:37;;;;;;;;;;;;;;;;;;10297867;28;20270;-66
2021/07/14 13:42:34;;;;;;;;;;;;;;;;;;10302519;28;19920;-65
2021/07/14 13:47:31;;;;;;;;;;;;;;;;;;10291702;28;19919;-66
2021/07/14 13:52:29;;;;;;;;;;;;;;;;;;10307087;28;19921;-65
2021/07/14 13:57:27;;;;;;;;;;;;;;;;;;10297517;28;19967;-65
2021/07/14 14:02:26;;;;;;;;;;;;;;;;;;10291326;28;19927;-65
2021/07/14 14:07:23;;;;;;;;;;;;;;;;;;10285177;28;19919;-65
2021/07/14 14:12:20;;;;;;;;;;;;;;;;;;10297479;28;19920;-64
2021/07/14 14:17:18;;;;;;;;;;;;;;;;;;10302450;28;19921;-65
2021/07/14 14:22:15;;;;;;;;;;;;;;;;;;10300905;28;19920;-64
2021/07/14 14:27:12;;;;;;;;;;;;;;;;;;10305388;28;19912;-64
2021/07/14 14:32:10;;;;;;;;;;;;;;;;;;10298879;28;19958;-64
2021/07/14 14:37:07;;;;;;;;;;;;;;;;;;10308848;28;19942;-66
2021/07/14 14:42:05;;;;;;;;;;;;;;;;;;10283048;28;19917;-67
2021/07/14 14:47:03;;;;;;;;;;;;;;;;;;10296942;28;19920;-66
2021/07/14 14:52:00;;;;;;;;;;;;;;;;;;10297610;28;19921;-67
2021/07/14 14:56:57;;;;;;;;;;;;;;;;;;10293274;28;19917;-67
2021/07/14 15:01:56;;;;;;;;;;;;;;;;;;10283666;28;20012;-67
2021/07/14 15:06:53;;;;;;;;;;;;;;;;;;10293942;28;20063;-68
2021/07/14 15:11:50;;;;;;;;;;;;;;;;;;10290346;28;20012;-68
2021/07/14 15:16:47;;;;;;;;;;;;;;;;;;10287278;28;19916;-67
2021/07/14 15:21:45;;;;;;;;;;;;;;;;;;10294550;28;19921;-67
2021/07/14 15:32:05;;;;;;;;;;;;;;;;;;10282292;28;19925;-66
2021/07/14 15:37:03;;;;;;;;;;;;;;;;;;10298492;28;19917;-66
2021/07/14 15:42:00;;;;;;;;;;;;;;;;;;10296915;28;19928;-66
2021/07/14 15:46:58;;;;;;;;;;;;;;;;;;10297765;28;19913;-67
2021/07/14 15:51:55;;;;;;;;;;;;;;;;;;10292637;28;20436;-66
2021/07/14 15:56:52;;;;;;;;;;;;;;;;;;10298568;28;19920;-67
2021/07/14 16:01:49;;;;;;;;;;;;;;;;;;10293248;28;19921;-67
2021/07/14 16:06:47;;;;;;;;;;;;;;;;;;10297363;28;20004;-66
2021/07/14 16:11:45;;;;;;;;;;;;;;;;;;10293724;28;19917;-66
2021/07/14 16:16:42;;;;;;;;;;;;;;;;;;10285458;28;19948;-67
2021/07/14 16:21:40;;;;;;;;;;;;;;;;;;10298030;28;20411;-67
2021/07/14 16:26:37;;;;;;;;;;;;;;;;;;10296059;28;20004;-67
2021/07/14 16:31:34;;;;;;;;;;;;;;;;;;10292626;28;19913;-67
2021/07/14 16:36:32;;;;;;;;;;;;;;;;;;10293367;28;19916;-66
2021/07/14 16:41:29;;;;;;;;;;;;;;;;;;10289749;28;20379;-66
2021/07/14 16:46:26;;;;;;;;;;;;;;;;;;10294626;28;19970;-67
2021/07/14 16:51:24;;;;;;;;;;;;;;;;;;10287059;28;19993;-65
2021/07/14 16:56:21;;;;;;;;;;;;;;;;;;10289777;28;20164;-65
2021/07/14 17:01:18;;;;;;;;;;;;;;;;;;10293479;28;19921;-65
2021/07/14 17:06:17;;;;;;;;;;;;;;;;;;10294436;28;19999;-65
2021/07/14 17:11:14;;;;;;;;;;;;;;;;;;10292314;28;19935;-64
2021/07/14 17:16:11;;;;;;;;;;;;;;;;;;10285888;28;19919;-64
2021/07/14 17:21:09;;;;;;;;;;;;;;;;;;10288361;28;19921;-64
2021/07/14 17:26:06;;;;;;;;;;;;;;;;;;10297511;28;19913;-65
2021/07/14 17:31:03;;;;;;;;;;;;;;;;;;10294929;28;20350;-65
2021/07/14 17:36:02;;;;;;;;;;;;;;;;;;10312329;28;20071;-65
2021/07/14 17:40:59;;;;;;;;;;;;;;;;;;10297061;28;20012;-65
2021/07/14 17:45:56;;;;;;;;;;;;;;;;;;10293962;28;19936;-65
2021/07/14 17:50:53;;;;;;;;;;;;;;;;;;10296065;28;19913;-65
2021/07/14 17:55:51;;;;;;;;;;;;;;;;;;10291229;28;19913;-66
2021/07/14 18:00:48;;;;;;;;;;;;;;;;;;10296750;28;19978;-65
2021/07/14 18:05:45;;;;;;;;;;;;;;;;;;10296147;28;19949;-65
2021/07/14 18:10:45;;;;;;;;;;;;;;;;;;10282084;28;19940;-65
2021/07/14 18:15:44;;;;;;;;;;;;;;;;;;10286696;28;19916;-66
2021/07/14 18:20:41;;;;;;;;;;;;;;;;;;10280749;28;19917;-65
2021/07/14 18:25:40;;;;;;;;;;;;;;;;;;10286697;28;19995;-66
2021/07/14 18:30:41;;;;;;;;;;;;;;;;;;10288709;28;20371;-65
2021/07/14 18:35:38;;;;;;;;;;;;;;;;;;10289847;28;19917;-66
2021/07/14 18:40:35;;;;;;;;;;;;;;;;;;10280241;28;20363;-65
2021/07/14 18:45:33;;;;;;;;;;;;;;;;;;10290519;28;20260;-65
2021/07/14 18:50:30;;;;;;;;;;;;;;;;;;10283375;28;19957;-65
2021/07/14 18:55:28;;;;;;;;;;;;;;;;;;10288743;28;20001;-65
2021/07/14 19:00:26;;;;;;;;;;;;;;;;;;10287096;28;20008;-65
2021/07/14 19:05:23;;;;;;;;;;;;;;;;;;10282700;28;19945;-65
2021/07/14 19:10:23;;;;;;;;;;;;;;;;;;10285299;28;19949;-64
2021/07/14 19:15:20;;;;;;;;;;;;;;;;;;10289118;28;20645;-65
2021/07/14 19:20:17;;;;;;;;;;;;;;;;;;10288730;28;20295;-65
2021/07/14 19:25:15;;;;;;;;;;;;;;;;;;10288137;28;19923;-65
2021/07/14 19:30:12;;;;;;;;;;;;;;;;;;10290191;28;19919;-66
2021/07/14 19:35:10;;;;;;;;;;;;;;;;;;10288017;28;20373;-65
2021/07/14 19:40:07;;;;;;;;;;;;;;;;;;10283384;28;19915;-65
2021/07/14 19:45:05;;;;;;;;;;;;;;;;;;10285538;28;20332;-65
2021/07/14 19:50:02;;;;;;;;;;;;;;;;;;10285212;28;19967;-65
2021/07/14 19:54:59;;;;;;;;;;;;;;;;;;10287503;28;20338;-65
2021/07/14 19:59:56;;;;;;;;;;;;;;;;;;10287812;28;19913;-65
2021/07/14 20:04:54;;;;;;;;;;;;;;;;;;10288718;28;19936;-65
2021/07/14 20:09:51;;;;;;;;;;;;;;;;;;10290567;28;20208;-65
2021/07/14 20:14:54;;;;;;;;;;;;;;;;;;10288700;28;19909;-65
2021/07/14 20:19:52;;;;;;;;;;;;;;;;;;10288199;28;19991;-65
2021/07/14 20:24:49;;;;;;;;;;;;;;;;;;10284573;28;19963;-64
2021/07/14 20:29:47;;;;;;;;;;;;;;;;;;10283128;28;20292;-65
2021/07/14 20:34:44;;;;;;;;;;;;;;;;;;10285472;28;19921;-65
2021/07/14 20:39:41;;;;;;;;;;;;;;;;;;10278478;28;20006;-65
2021/07/14 20:44:39;;;;;;;;;;;;;;;;;;10279193;28;20014;-66
2021/07/14 20:49:36;;;;;;;;;;;;;;;;;;10287935;28;20148;-66
2021/07/14 20:54:34;;;;;;;;;;;;;;;;;;10284167;28;20272;-66
2021/07/14 20:59:31;;;;;;;;;;;;;;;;;;10284070;28;20136;-65
2021/07/14 21:04:28;;;;;;;;;;;;;;;;;;10288438;28;19925;-66
2021/07/14 21:09:25;;;;;;;;;;;;;;;;;;10288010;28;20652;-65
2021/07/14 21:14:23;;;;;;;;;;;;;;;;;;10294587;28;19971;-65
2021/07/14 21:19:20;;;;;;;;;;;;;;;;;;10291941;28;19912;-66
2021/07/14 21:24:17;;;;;;;;;;;;;;;;;;10288230;28;21394;-65
2021/07/14 21:29:15;;;;;;;;;;;;;;;;;;10293575;28;19941;-65
2021/07/14 21:34:12;;;;;;;;;;;;;;;;;;10294289;28;19921;-66
2021/07/14 21:39:09;;;;;;;;;;;;;;;;;;10289561;28;20026;-66
2021/07/14 21:44:06;;;;;;;;;;;;;;;;;;10296181;28;19921;-66
2021/07/14 21:49:04;;;;;;;;;;;;;;;;;;10282557;28;19909;-65
2021/07/14 21:54:01;;;;;;;;;;;;;;;;;;10289765;28;19905;-66
2021/07/14 21:58:58;;;;;;;;;;;;;;;;;;10287391;28;20351;-65
2021/07/14 22:03:56;;;;;;;;;;;;;;;;;;10293224;28;19923;-66
2021/07/14 22:08:53;;;;;;;;;;;;;;;;;;10281937;28;19928;-66
2021/07/14 22:13:50;;;;;;;;;;;;;;;;;;10284553;28;19921;-65
2021/07/14 22:18:48;;;;;;;;;;;;;;;;;;10296018;28;19917;-64
2021/07/14 22:23:45;;;;;;;;;;;;;;;;;;10288596;28;19917;-64
2021/07/14 22:28:43;;;;;;;;;;;;;;;;;;10290371;28;19916;-64
2021/07/14 22:33:40;;;;;;;;;;;;;;;;;;10285281;28;20341;-64
2021/07/14 22:38:37;;;;;;;;;;;;;;;;;;10297610;28;20275;-64
2021/07/14 22:43:35;;;;;;;;;;;;;;;;;;10298905;28;20283;-66
2021/07/14 22:48:32;;;;;;;;;;;;;;;;;;10296137;28;19931;-66
2021/07/14 22:53:30;;;;;;;;;;;;;;;;;;10299077;28;19913;-66
2021/07/14 22:58:27;;;;;;;;;;;;;;;;;;10297525;28;19924;-66
2021/07/14 23:03:25;;;;;;;;;;;;;;;;;;10288975;28;19947;-65
2021/07/14 23:08:22;;;;;;;;;;;;;;;;;;10282715;28;20367;-65
2021/07/14 23:13:19;;;;;;;;;;;;;;;;;;10287299;28;19920;-65
2021/07/14 23:18:17;;;;;;;;;;;;;;;;;;10292490;28;19917;-65
2021/07/14 23:23:14;;;;;;;;;;;;;;;;;;10286783;28;20483;-65
2021/07/14 23:28:11;;;;;;;;;;;;;;;;;;10291261;28;19919;-65
2021/07/14 23:33:08;;;;;;;;;;;;;;;;;;10295025;28;19921;-65
2021/07/14 23:38:06;;;;;;;;;;;;;;;;;;10293346;28;19924;-65
2021/07/14 23:43:03;;;;;;;;;;;;;;;;;;10281977;28;19917;-65
2021/07/14 23:48:00;;;;;;;;;;;;;;;;;;10297578;28;19913;-65
2021/07/14 23:52:58;;;;;;;;;;;;;;;;;;10292287;28;19914;-64
2021/07/14 23:57:55;;;;;;;;;;;;;;;;;;10292708;28;20644;-65
